createdAt,value
2022-12-14T00:01:56.073Z,69.20
2022-12-14T00:04:24.032Z,69.23
2022-12-14T00:06:52.635Z,69.13
2022-12-14T00:09:20.599Z,69.19
2022-12-14T00:11:50.102Z,69.46
2022-12-14T00:14:18.019Z,69.41
2022-12-14T00:16:45.956Z,69.30
2022-12-14T00:19:13.864Z,69.35
2022-12-14T00:21:41.821Z,69.44
2022-12-14T00:24:10.567Z,69.43
2022-12-14T00:26:38.581Z,69.35
2022-12-14T00:29:06.572Z,69.31
2022-12-14T00:31:34.741Z,69.32
2022-12-14T00:34:02.767Z,69.35
2022-12-14T00:36:31.830Z,69.33
2022-12-14T00:38:59.963Z,69.36
2022-12-14T00:41:28.074Z,69.37
2022-12-14T00:43:56.042Z,69.27
2022-12-14T00:46:24.283Z,69.47
2022-12-14T00:48:52.382Z,69.39
2022-12-14T00:51:20.497Z,69.40
2022-12-14T00:53:48.436Z,69.48
2022-12-14T00:56:16.416Z,69.39
2022-12-14T00:58:49.851Z,69.51
2022-12-14T01:01:17.890Z,69.58
2022-12-14T01:03:46.044Z,69.72
2022-12-14T01:06:23.310Z,69.68
2022-12-14T01:08:51.254Z,69.85
2022-12-14T01:11:19.336Z,69.95
2022-12-14T01:13:49.573Z,70.11
2022-12-14T01:16:18.229Z,70.20
2022-12-14T01:18:46.436Z,70.24
2022-12-14T01:21:23.087Z,70.18
2022-12-14T01:23:56.106Z,70.20
2022-12-14T01:26:25.353Z,70.22
2022-12-14T01:28:57.386Z,70.20
2022-12-14T01:31:30.576Z,70.35
2022-12-14T01:33:58.694Z,70.36
2022-12-14T01:36:29.998Z,70.30
2022-12-14T01:39:04.687Z,70.49
2022-12-14T01:41:38.815Z,70.45
2022-12-14T01:44:10.000Z,70.39
2022-12-14T01:46:46.621Z,70.26
2022-12-14T01:49:20.772Z,70.35
2022-12-14T01:51:56.202Z,70.31
2022-12-14T01:54:26.392Z,70.34
2022-12-14T01:56:55.531Z,70.35
2022-12-14T01:59:29.258Z,70.26
2022-12-14T02:02:00.151Z,70.49
2022-12-14T02:04:28.762Z,70.49
2022-12-14T02:07:01.109Z,70.40
2022-12-14T02:09:34.500Z,70.37
2022-12-14T02:12:19.849Z,70.39
2022-12-14T02:14:48.623Z,70.30
2022-12-14T02:17:16.900Z,70.46
2022-12-14T02:19:46.919Z,70.54
2022-12-14T02:22:36.393Z,70.36
2022-12-14T02:25:32.599Z,70.39
2022-12-14T02:28:37.986Z,70.44
2022-12-14T02:31:51.630Z,70.55
2022-12-14T02:34:49.029Z,70.47
2022-12-14T02:37:29.199Z,70.56
2022-12-14T02:40:21.698Z,70.44
2022-12-14T02:42:56.933Z,70.60
2022-12-14T02:45:37.090Z,70.64
2022-12-14T02:48:16.557Z,70.62
2022-12-14T02:51:13.593Z,70.58
2022-12-14T02:53:53.960Z,70.72
2022-12-14T02:56:28.198Z,70.69
2022-12-14T02:58:57.406Z,70.62
2022-12-14T03:01:28.640Z,70.79
2022-12-14T03:03:56.707Z,70.79
2022-12-14T03:06:26.287Z,70.91
2022-12-14T03:09:02.559Z,70.96
2022-12-14T03:11:41.214Z,70.90
2022-12-14T03:14:17.436Z,70.92
2022-12-14T03:16:50.275Z,71.07
2022-12-14T03:19:48.942Z,71.03
2022-12-14T03:22:33.322Z,71.03
2022-12-14T03:25:08.846Z,71.02
2022-12-14T03:27:41.226Z,71.15
2022-12-14T03:30:13.005Z,71.22
2022-12-14T03:32:47.376Z,71.22
2022-12-14T03:35:33.195Z,71.29
2022-12-14T03:38:18.475Z,71.20
2022-12-14T03:40:54.669Z,71.39
2022-12-14T03:43:31.802Z,71.53
2022-12-14T03:46:12.859Z,71.48
2022-12-14T03:48:48.480Z,71.52
2022-12-14T03:51:35.478Z,71.59
2022-12-14T03:54:21.463Z,71.55
2022-12-14T03:57:18.581Z,71.55
2022-12-14T04:00:01.355Z,71.66
2022-12-14T04:03:01.132Z,71.61
2022-12-14T04:06:02.048Z,71.52
2022-12-14T04:08:58.147Z,71.64
2022-12-14T04:11:52.310Z,71.72
2022-12-14T04:14:44.449Z,71.71
2022-12-14T04:17:37.359Z,71.76
2022-12-14T04:20:10.928Z,71.91
2022-12-14T04:22:43.918Z,71.89
2022-12-14T04:25:42.528Z,71.81
2022-12-14T04:28:36.748Z,71.85
2022-12-14T04:31:09.851Z,72.06
2022-12-14T04:33:48.930Z,72.08
2022-12-14T04:36:56.120Z,72.22
2022-12-14T04:39:54.014Z,72.11
2022-12-14T04:42:30.857Z,72.17
2022-12-14T04:45:12.762Z,72.03
2022-12-14T04:47:49.595Z,72.18
2022-12-14T04:50:29.786Z,72.30
2022-12-14T04:53:04.247Z,72.30
2022-12-14T04:55:40.741Z,72.20
2022-12-14T04:58:29.991Z,72.22
2022-12-14T05:01:25.680Z,72.27
2022-12-14T05:04:16.906Z,72.25
2022-12-14T05:07:06.763Z,72.31
2022-12-14T05:09:40.695Z,72.24
2022-12-14T05:12:44.157Z,72.30
2022-12-14T05:15:23.444Z,72.34
2022-12-14T05:17:52.619Z,72.39
2022-12-14T05:20:23.280Z,72.37
2022-12-14T05:22:51.372Z,72.47
2022-12-14T05:25:19.291Z,72.50
2022-12-14T05:27:47.246Z,72.43
2022-12-14T05:30:16.026Z,72.59
2022-12-14T05:32:44.179Z,72.41
2022-12-14T05:35:14.023Z,72.37
2022-12-14T05:37:42.653Z,72.54
2022-12-14T05:40:11.847Z,72.73
2022-12-14T05:42:44.695Z,72.36
2022-12-14T05:45:15.099Z,72.41
2022-12-14T05:47:43.102Z,72.46
2022-12-14T05:50:11.013Z,72.48
2022-12-14T05:52:38.950Z,72.39
2022-12-14T05:55:07.421Z,72.43
2022-12-14T05:57:35.349Z,72.56
2022-12-14T06:00:04.963Z,72.54
2022-12-14T06:02:32.845Z,72.68
2022-12-14T06:05:00.905Z,72.68
2022-12-14T06:07:28.853Z,72.73
2022-12-14T06:09:56.784Z,72.66
2022-12-14T06:12:24.687Z,72.78
2022-12-14T06:14:52.737Z,72.76
2022-12-14T06:17:20.667Z,72.84
2022-12-14T06:19:50.190Z,72.74
2022-12-14T06:22:19.041Z,72.73
2022-12-14T06:24:46.953Z,72.81
2022-12-14T06:27:15.031Z,72.88
2022-12-14T06:29:43.048Z,72.84
2022-12-14T06:32:10.947Z,72.70
2022-12-14T06:34:42.150Z,72.71
2022-12-14T06:37:10.479Z,72.73
2022-12-14T06:39:38.911Z,72.76
2022-12-14T06:42:07.134Z,72.77
2022-12-14T06:44:35.136Z,72.80
2022-12-14T06:47:03.792Z,72.83
2022-12-14T06:49:31.692Z,72.86
2022-12-14T06:51:59.605Z,72.70
2022-12-14T06:54:27.903Z,72.69
2022-12-14T06:56:55.788Z,72.57
2022-12-14T06:59:23.774Z,72.67
2022-12-14T07:01:51.806Z,72.62
2022-12-14T07:04:21.636Z,72.49
2022-12-14T07:06:50.762Z,72.57
2022-12-14T07:09:18.686Z,72.48
2022-12-14T07:11:51.140Z,72.51
2022-12-14T07:14:19.075Z,72.35
2022-12-14T07:16:48.813Z,72.32
2022-12-14T07:19:18.330Z,72.43
2022-12-14T07:21:46.300Z,72.30
2022-12-14T07:24:14.868Z,72.40
2022-12-14T07:26:42.815Z,72.23
2022-12-14T07:29:12.086Z,72.33
2022-12-14T07:31:40.272Z,72.29
2022-12-14T07:34:12.580Z,72.38
2022-12-14T07:36:40.584Z,72.26
2022-12-14T07:39:14.716Z,72.46
2022-12-14T07:41:43.501Z,72.29
2022-12-14T07:44:11.943Z,72.47
2022-12-14T07:46:41.184Z,72.47
2022-12-14T07:49:09.651Z,72.20
2022-12-14T07:51:41.983Z,72.23
2022-12-14T07:54:11.552Z,72.09
2022-12-14T07:56:43.007Z,72.05
2022-12-14T07:59:15.222Z,72.12
2022-12-14T08:01:44.338Z,72.07
2022-12-14T08:04:15.748Z,72.17
2022-12-14T08:06:44.346Z,72.09
2022-12-14T08:09:12.841Z,72.26
2022-12-14T08:11:40.723Z,72.28
2022-12-14T08:14:19.217Z,72.25
2022-12-14T08:16:48.915Z,72.27
2022-12-14T08:19:18.904Z,72.09
2022-12-14T08:21:47.196Z,72.15
2022-12-14T08:24:17.131Z,72.12
2022-12-14T08:26:48.939Z,72.13
2022-12-14T08:29:18.322Z,72.27
2022-12-14T08:31:46.449Z,72.25
2022-12-14T08:34:16.857Z,72.28
2022-12-14T08:36:44.778Z,72.36
2022-12-14T08:39:13.401Z,72.61
2022-12-14T08:41:41.367Z,72.64
2022-12-14T08:44:09.338Z,72.71
2022-12-14T08:46:40.265Z,72.69
2022-12-14T08:49:08.505Z,72.56
2022-12-14T08:51:40.008Z,72.58
2022-12-14T08:54:07.906Z,72.71
2022-12-14T08:56:36.165Z,72.74
2022-12-14T08:59:04.093Z,72.91
2022-12-14T09:01:34.447Z,72.81
2022-12-14T09:04:08.004Z,73.01
2022-12-14T09:06:38.628Z,73.06
2022-12-14T09:09:15.555Z,73.18
2022-12-14T09:11:45.304Z,73.37
2022-12-14T09:14:13.304Z,73.44
2022-12-14T09:16:41.608Z,73.46
2022-12-14T09:19:09.706Z,73.44
2022-12-14T09:21:38.474Z,73.28
2022-12-14T09:24:07.043Z,73.16
2022-12-14T09:26:34.982Z,73.17
2022-12-14T09:29:03.062Z,73.20
2022-12-14T09:31:31.052Z,73.15
2022-12-14T09:33:59.528Z,72.98
2022-12-14T09:36:28.661Z,72.93
2022-12-14T09:38:57.818Z,72.74
2022-12-14T09:41:31.321Z,72.75
2022-12-14T09:44:18.845Z,72.72
2022-12-14T09:47:41.920Z,72.83
2022-12-14T09:50:16.072Z,72.70
2022-12-14T09:52:51.221Z,72.68
2022-12-14T09:55:33.887Z,72.73
2022-12-14T09:58:23.421Z,72.42
2022-12-14T10:01:23.540Z,72.26
2022-12-14T10:04:10.713Z,72.29
2022-12-14T10:06:59.378Z,72.48
2022-12-14T10:09:33.457Z,72.41
2022-12-14T10:12:04.508Z,72.41
2022-12-14T10:14:56.997Z,72.51
2022-12-14T10:17:37.258Z,72.34
2022-12-14T10:20:48.239Z,72.36
2022-12-14T10:23:23.050Z,72.27
2022-12-14T10:25:55.381Z,72.19
2022-12-14T10:28:38.669Z,72.06
2022-12-14T10:31:12.945Z,72.10
2022-12-14T10:33:46.407Z,72.14
2022-12-14T10:36:28.827Z,71.94
2022-12-14T10:39:27.577Z,71.77
2022-12-14T10:42:08.046Z,71.80
2022-12-14T10:48:39.875Z,71.56
2022-12-14T10:51:26.036Z,71.24
2022-12-14T10:54:07.056Z,71.09
2022-12-14T10:56:38.819Z,70.94
2022-12-14T10:59:22.155Z,70.89
2022-12-14T11:01:57.333Z,71.00
2022-12-14T11:04:30.913Z,70.81
2022-12-14T11:07:01.597Z,70.91
2022-12-14T11:09:29.607Z,70.75
2022-12-14T11:12:13.949Z,70.81
2022-12-14T11:15:05.072Z,70.89
2022-12-14T11:17:44.169Z,70.80
2022-12-14T11:20:20.919Z,70.90
2022-12-14T11:22:52.265Z,70.76
2022-12-14T11:25:29.344Z,70.70
2022-12-14T11:28:00.097Z,70.47
2022-12-14T11:30:29.703Z,70.46
2022-12-14T11:32:57.791Z,70.45
2022-12-14T11:35:25.725Z,70.33
2022-12-14T11:37:59.880Z,70.29
2022-12-14T11:40:28.109Z,70.37
2022-12-14T11:43:03.493Z,70.41
2022-12-14T11:45:33.941Z,70.09
2022-12-14T11:48:14.371Z,69.96
2022-12-14T11:50:44.700Z,69.87
2022-12-14T11:53:15.723Z,69.81
2022-12-14T11:55:57.467Z,69.69
2022-12-14T11:58:32.745Z,69.54
2022-12-14T12:01:14.740Z,69.42
2022-12-14T12:03:47.422Z,69.57
2022-12-14T12:06:25.133Z,69.49
2022-12-14T12:08:59.384Z,69.33
2022-12-14T12:11:31.323Z,69.35
2022-12-14T12:14:03.283Z,69.22
2022-12-14T12:16:33.179Z,69.10
2022-12-14T12:19:12.482Z,69.19
2022-12-14T12:21:45.163Z,69.30
2022-12-14T12:24:25.427Z,69.20
2022-12-14T12:27:03.399Z,69.03
2022-12-14T12:29:40.623Z,69.24
2022-12-14T12:32:15.191Z,68.97
2022-12-14T12:34:48.480Z,68.98
2022-12-14T12:37:28.161Z,69.21
2022-12-14T12:40:02.801Z,69.07
2022-12-14T12:42:50.059Z,69.04
2022-12-14T12:45:24.350Z,68.95
2022-12-14T12:48:07.510Z,69.11
2022-12-14T12:50:49.717Z,69.05
2022-12-14T12:53:59.544Z,69.04
2022-12-14T12:56:41.762Z,68.91
2022-12-14T12:59:18.708Z,68.78
2022-12-14T13:01:51.939Z,68.82
2022-12-14T13:04:52.491Z,68.78
2022-12-14T13:07:55.704Z,68.70
2022-12-14T13:10:30.217Z,68.65
2022-12-14T13:13:03.436Z,68.66
2022-12-14T13:15:37.181Z,68.61
2022-12-14T13:18:56.416Z,68.48
2022-12-14T13:21:26.904Z,68.62
2022-12-14T13:23:54.996Z,68.40
2022-12-14T13:27:02.970Z,68.53
2022-12-14T13:29:49.075Z,68.47
2022-12-14T13:32:54.623Z,68.45
2022-12-14T13:35:44.783Z,68.38
2022-12-14T13:38:33.920Z,68.31
2022-12-14T13:41:17.100Z,68.28
2022-12-14T13:43:57.280Z,68.47
2022-12-14T13:46:27.528Z,68.43
2022-12-14T13:49:02.880Z,68.45
2022-12-14T13:51:46.213Z,68.46
2022-12-14T13:54:28.333Z,68.46
2022-12-14T13:57:09.747Z,68.32
2022-12-14T13:59:39.830Z,68.29
2022-12-14T14:02:27.911Z,68.29
2022-12-14T14:05:14.756Z,68.25
2022-12-14T14:08:02.722Z,68.36
2022-12-14T14:10:36.640Z,68.24
2022-12-14T14:13:41.169Z,68.19
2022-12-14T14:16:28.303Z,68.13
2022-12-14T14:19:11.328Z,68.22
2022-12-14T14:22:14.109Z,68.17
2022-12-14T14:24:51.467Z,68.11
2022-12-14T14:27:22.036Z,68.00
2022-12-14T14:29:52.159Z,68.03
2022-12-14T14:32:40.367Z,67.78
2022-12-14T14:35:08.505Z,67.82
2022-12-14T14:37:39.046Z,67.96
2022-12-14T14:40:22.143Z,67.99
2022-12-14T14:43:05.537Z,67.74
2022-12-14T14:45:37.145Z,67.84
2022-12-14T14:48:34.787Z,67.79
2022-12-14T14:51:20.332Z,67.81
2022-12-14T14:53:50.549Z,67.83
2022-12-14T14:56:36.694Z,67.83
2022-12-14T14:59:17.039Z,67.73
2022-12-14T15:01:50.788Z,67.65
2022-12-14T15:04:44.556Z,67.74
2022-12-14T15:07:19.424Z,67.83
2022-12-14T15:10:01.739Z,67.92
2022-12-14T15:12:32.726Z,67.76
2022-12-14T15:15:04.793Z,67.95
2022-12-14T15:17:32.816Z,67.77
2022-12-14T15:20:02.762Z,67.75
2022-12-14T15:22:42.148Z,67.70
2022-12-14T15:25:23.810Z,67.80
2022-12-14T15:27:53.217Z,67.80
2022-12-14T15:30:27.454Z,67.78
2022-12-14T15:33:04.057Z,67.82
2022-12-14T15:35:35.363Z,67.75
2022-12-14T15:38:07.572Z,67.65
2022-12-14T15:40:35.883Z,67.61
2022-12-14T15:43:17.053Z,67.72
2022-12-14T15:45:48.513Z,67.73
2022-12-14T15:48:25.148Z,67.77
2022-12-14T15:51:00.865Z,67.78
2022-12-14T15:53:35.119Z,67.78
2022-12-14T15:56:19.121Z,67.73
2022-12-14T15:58:49.161Z,67.88
2022-12-14T16:01:24.690Z,68.05
2022-12-14T16:04:00.882Z,67.93
2022-12-14T16:06:30.552Z,68.10
2022-12-14T16:09:05.464Z,68.11
2022-12-14T16:11:40.139Z,67.93
2022-12-14T16:14:21.338Z,67.99
2022-12-14T16:16:50.947Z,68.01
2022-12-14T16:19:27.850Z,67.95
2022-12-14T16:22:23.297Z,67.87
2022-12-14T16:24:58.120Z,67.97
2022-12-14T16:27:28.117Z,67.96
2022-12-14T16:30:15.533Z,68.01
2022-12-14T16:32:49.780Z,67.96
2022-12-14T16:35:27.485Z,68.02
2022-12-14T16:37:55.870Z,68.05
2022-12-14T16:40:35.727Z,68.12
2022-12-14T16:43:05.513Z,68.19
2022-12-14T16:45:36.498Z,68.06
2022-12-14T16:48:16.113Z,68.11
2022-12-14T16:51:07.757Z,68.14
2022-12-14T16:53:33.228Z,68.19
2022-12-14T16:56:14.485Z,68.06
2022-12-14T16:58:56.403Z,68.04
2022-12-14T17:01:24.921Z,68.38
2022-12-14T17:04:04.112Z,68.27
2022-12-14T17:06:54.988Z,68.35
2022-12-14T17:09:26.044Z,68.35
2022-12-14T17:12:07.252Z,68.39
2022-12-14T17:14:35.603Z,68.54
2022-12-14T17:17:07.474Z,68.51
2022-12-14T17:19:38.951Z,68.52
2022-12-14T17:22:15.315Z,68.44
2022-12-14T17:24:43.781Z,68.61
2022-12-14T17:27:17.232Z,68.73
2022-12-14T17:29:45.894Z,68.71
2022-12-14T17:32:16.920Z,68.88
2022-12-14T17:34:46.013Z,68.81
2022-12-14T17:37:19.549Z,68.80
2022-12-14T17:39:47.867Z,68.88
2022-12-14T17:42:18.059Z,68.69
2022-12-14T17:44:56.521Z,68.90
2022-12-14T17:47:24.839Z,69.06
2022-12-14T17:49:52.999Z,68.94
2022-12-14T17:52:29.088Z,68.76
2022-12-14T17:54:57.973Z,68.99
2022-12-14T17:57:26.845Z,69.11
2022-12-14T18:00:14.780Z,69.12
2022-12-14T18:02:45.701Z,69.16
2022-12-14T18:05:21.264Z,69.15
2022-12-14T18:07:49.855Z,69.34
2022-12-14T18:10:18.654Z,69.31
2022-12-14T18:12:47.139Z,69.32
2022-12-14T18:15:31.095Z,69.39
2022-12-14T18:17:59.365Z,69.57
2022-12-14T18:20:27.660Z,69.46
2022-12-14T18:22:56.521Z,69.49
2022-12-14T18:25:43.312Z,69.53
2022-12-14T18:28:17.347Z,69.65
2022-12-14T18:30:50.899Z,69.73
2022-12-14T18:33:21.926Z,69.64
2022-12-14T18:35:54.497Z,69.83
2022-12-14T18:38:23.547Z,70.07
2022-12-14T18:40:53.715Z,70.02
2022-12-14T18:43:24.496Z,69.96
2022-12-14T18:45:54.235Z,69.84
2022-12-14T18:48:23.393Z,69.87
2022-12-14T18:50:53.805Z,69.94
2022-12-14T18:53:24.268Z,70.09
2022-12-14T18:55:53.699Z,70.12
2022-12-14T18:58:27.905Z,70.09
2022-12-14T19:00:59.411Z,70.13
2022-12-14T19:03:32.288Z,70.22
2022-12-14T19:06:42.963Z,70.37
2022-12-14T19:09:01.471Z,70.42
2022-12-14T19:11:35.561Z,70.32
2022-12-14T19:14:05.034Z,70.45
2022-12-14T19:16:33.285Z,70.46
2022-12-14T19:19:01.406Z,70.55
2022-12-14T19:21:31.567Z,70.37
2022-12-14T19:24:00.116Z,70.42
2022-12-14T19:26:29.346Z,70.41
2022-12-14T19:28:57.431Z,70.47
2022-12-14T19:31:26.653Z,70.50
2022-12-14T19:33:54.913Z,70.45
2022-12-14T19:36:25.469Z,70.59
2022-12-14T19:38:53.468Z,70.65
2022-12-14T19:41:21.673Z,70.72
2022-12-14T19:43:49.919Z,70.64
2022-12-14T19:46:18.321Z,70.67
2022-12-14T19:48:46.797Z,70.63
2022-12-14T19:51:15.347Z,70.63
2022-12-14T19:53:46.028Z,70.62
2022-12-14T20:08:30.699Z,70.71
2022-12-14T20:10:59.028Z,70.72
2022-12-14T20:13:28.255Z,70.70
2022-12-14T20:15:58.586Z,70.76
2022-12-14T20:18:28.241Z,70.62
2022-12-14T20:21:05.345Z,70.72
2022-12-14T20:23:37.332Z,70.97
2022-12-14T20:26:13.599Z,70.76
2022-12-14T20:28:41.886Z,70.94
2022-12-14T20:31:11.066Z,71.07
2022-12-14T20:33:39.830Z,71.17
2022-12-14T20:36:08.586Z,71.18
2022-12-14T20:38:37.047Z,71.16
2022-12-14T20:41:10.545Z,71.30
2022-12-14T20:43:41.495Z,71.11
2022-12-14T20:46:37.262Z,71.21
2022-12-14T20:49:10.062Z,71.16
2022-12-14T20:51:39.056Z,71.18
2022-12-14T20:54:10.858Z,71.31
2022-12-14T20:56:39.485Z,71.29
2022-12-14T20:59:08.516Z,71.15
2022-12-14T21:01:38.104Z,71.13
2022-12-14T21:04:07.006Z,71.20
2022-12-14T21:06:39.609Z,71.12
2022-12-14T21:09:15.154Z,71.20
2022-12-14T21:12:03.896Z,71.37
2022-12-14T21:14:38.162Z,71.27
2022-12-14T21:17:06.630Z,71.35
2022-12-14T21:19:36.103Z,71.42
2022-12-14T21:22:05.999Z,71.52
2022-12-14T21:25:01.682Z,71.61
2022-12-14T21:27:27.686Z,71.54
2022-12-14T21:29:55.907Z,71.53
2022-12-14T21:32:24.094Z,71.60
2022-12-14T21:34:52.182Z,71.60
2022-12-14T21:37:20.908Z,71.48
2022-12-14T21:39:54.771Z,71.54
2022-12-14T21:42:25.000Z,71.61
2022-12-14T21:44:55.284Z,71.68
2022-12-14T21:47:26.270Z,71.69
2022-12-14T21:49:54.452Z,71.73
2022-12-14T21:52:25.041Z,71.62
2022-12-14T21:54:53.119Z,71.74
2022-12-14T21:57:50.126Z,71.72
2022-12-14T22:00:19.789Z,71.72
2022-12-14T22:02:48.220Z,71.82
2022-12-14T22:05:16.873Z,71.72
2022-12-14T22:07:44.950Z,71.63
2022-12-14T22:10:13.135Z,71.57
2022-12-14T22:12:41.135Z,71.39
2022-12-14T22:15:09.925Z,71.39
2022-12-14T22:17:37.917Z,71.46
2022-12-14T22:20:07.339Z,71.36
2022-12-14T22:22:35.305Z,71.43
2022-12-14T22:25:03.919Z,71.33
2022-12-14T22:27:31.890Z,71.14
2022-12-14T22:29:59.914Z,71.33
2022-12-14T22:32:28.264Z,71.41
2022-12-14T22:34:56.205Z,71.29
2022-12-14T22:37:24.103Z,71.38
2022-12-14T22:39:51.965Z,71.20
2022-12-14T22:42:19.853Z,71.09
2022-12-14T22:44:49.137Z,71.08
2022-12-14T22:47:17.151Z,70.95
2022-12-14T22:49:45.086Z,70.93
2022-12-14T22:52:13.048Z,70.76
2022-12-14T22:54:41.127Z,70.74
2022-12-14T22:57:18.962Z,70.55
2022-12-14T22:59:52.362Z,70.61
2022-12-14T23:02:20.455Z,70.47
2022-12-14T23:04:49.912Z,70.40
2022-12-14T23:07:18.183Z,70.36
2022-12-14T23:10:05.090Z,70.44
2022-12-14T23:12:51.834Z,70.52
2022-12-14T23:15:38.449Z,70.43
2022-12-14T23:18:26.529Z,70.37
2022-12-14T23:21:13.453Z,70.21
2022-12-14T23:24:02.166Z,70.25
2022-12-14T23:26:49.423Z,70.21
2022-12-14T23:29:35.829Z,70.27
2022-12-14T23:32:22.899Z,70.17
2022-12-14T23:35:09.350Z,70.12
2022-12-14T23:37:56.183Z,70.18
2022-12-14T23:40:42.548Z,70.09
2022-12-14T23:43:35.111Z,70.27
2022-12-14T23:46:23.886Z,70.30
2022-12-14T23:49:15.361Z,70.08
2022-12-14T23:52:02.380Z,70.23
2022-12-14T23:54:49.179Z,70.25
2022-12-14T23:57:36.014Z,70.32
